< Typhoon 199915 1999 Season Typhoon 199917 >
Typhoon 199916 (ZIA)
General InformationTrack Information on Google MapsDetailed Wind InformationList of All Images || NewsDisaster Info.ResourceGoogle EarthGE AnimationAtom FeedGeoJSON
Detalied Best Track (Time Zone = UTC)
Year Month Day Hour Lat. Long. Pressure (hPa) Wind (kt) Class Image Chart
1999 9 11 00 18.0 141.8 1006 0 2 Image Chart
1999 9 11 06 18.5 140.9 1006 0 2 Image Chart
1999 9 11 12 19.2 139.9 1006 0 2 Image Chart
1999 9 11 18 20.0 139.3 1004 0 2 Image Chart
1999 9 12 00 21.0 138.9 1004 0 2 Image Chart
1999 9 12 06 22.1 138.3 1004 0 2 Image Chart
1999 9 12 12 22.7 137.7 1004 0 2 Image Chart
1999 9 12 18 23.5 137.1 1002 0 2 Image Chart
1999 9 13 00 25.2 135.9 1002 0 2 Image Chart
1999 9 13 06 27.3 134.1 1002 0 2 Image Chart
1999 9 13 12 28.3 132.8 1002 0 2 Image Chart
1999 9 13 18 29.0 132.4 1000 0 2 Image Chart
1999 9 14 00 29.9 131.8 994 0 2 Image Chart
1999 9 14 06 31.3 131.2 990 45 3 Image Chart
1999 9 14 08 31.5 131.2 985 45 3 Image Chart
1999 9 14 09 31.7 131.3 985 45 3 Image Chart
1999 9 14 12 32.1 131.6 990 40 3 Image Chart
1999 9 14 15 32.6 132.0 990 35 3 Image Chart
1999 9 14 17 33.1 132.4 988 35 3 Image Chart
1999 9 14 18 33.2 132.6 988 35 3 Image Chart
1999 9 14 21 33.8 133.6 992 35 3 Image Chart
1999 9 15 00 34.4 134.6 994 35 3 Image Chart
1999 9 15 01 34.6 134.8 994 45 3 Image Chart
1999 9 15 03 35.1 135.5 998 35 3 Image Chart
1999 9 15 06 35.7 137.6 1000 0 2 Image Chart
1999 9 15 12 37.0 141.4 1004 0 6 Image Chart
1999 9 15 18 37.9 144.9 1008 0 6 Image Chart
1999 9 16 00 39.1 149.1 1008 0 6 Image Chart
1999 9 16 06 39.4 151.3 1008 0 6 Image Chart
1999 9 16 12 39.6 153.0 1008 0 6 Image Chart
1999 9 16 18 39.7 154.6 1008 0 6 Image Chart
1999 9 17 00 39.7 156.0 1008 0 6 Image Chart
1999 9 17 06 39.8 157.3 1008 0 6 Image Chart
Japan Meteorological Agency Best Track Data | Correction Date : 2005-03-01
< Typhoon 199915 1999 Season Typhoon 199917 >

Help